Time;durP1;ratioP1;P1;durP2;ratioP2;P2;SDS_P1;SDS_P2;PMS_P1;PMS_P2;Temp;Humidity;BMP_temperature;BMP_pressure;BME280_temperature;BME280_humidity;BME280_pressure;Samples;Min_cycle;Max_cycle;Signal;HPM_P1;HPM_P2
2022/09/06 00:00:30;;;;;;;5.63;5.13;;;;;;;14.48;89.07;98113.03;6134848;29;20226;-44
2022/09/06 00:03:32;;;;;;;5.30;4.90;;;;;;;14.43;89.26;98111.78;6138075;29;20230;-43
2022/09/06 00:06:35;;;;;;;5.00;4.60;;;;;;;14.35;89.49;98104.47;6138736;29;20605;-43
2022/09/06 00:09:37;;;;;;;5.30;4.50;;;;;;;14.34;89.38;98110.75;6136426;29;20605;-43
2022/09/06 00:12:40;;;;;;;8.20;4.90;;;;;;;14.36;89.40;98100.84;6136210;29;20237;-43
2022/09/06 00:15:42;;;;;;;4.90;4.40;;;;;;;14.34;89.40;98098.31;6134665;29;20663;-43
2022/09/06 00:18:45;;;;;;;4.80;4.40;;;;;;;14.31;89.51;98097.75;6136078;29;20492;-43
2022/09/06 00:21:47;;;;;;;4.73;4.43;;;;;;;14.24;89.53;98096.63;6135218;29;20230;-43
2022/09/06 00:24:49;;;;;;;5.27;4.87;;;;;;;14.23;89.72;98092.28;6135104;29;20234;-44
2022/09/06 00:27:56;;;;;;;5.10;4.70;;;;;;;14.23;89.64;98081.66;6119033;29;20230;-43
2022/09/06 00:31:17;;;;;;;5.00;4.50;;;;;;;14.23;89.37;98082.50;6116932;29;20727;-44
2022/09/06 00:34:19;;;;;;;5.30;4.90;;;;;;;14.19;89.94;98091.72;6134268;28;20237;-44
2022/09/06 00:37:21;;;;;;;5.30;4.80;;;;;;;14.19;90.30;98091.72;6135791;29;20264;-43
2022/09/06 00:40:24;;;;;;;5.67;5.13;;;;;;;14.16;90.14;98092.00;6135054;29;20656;-44
2022/09/06 00:43:26;;;;;;;5.67;5.17;;;;;;;14.10;90.52;98087.22;6135530;29;20273;-44
2022/09/06 00:46:30;;;;;;;5.80;5.23;;;;;;;14.09;90.79;98092.66;6135238;29;20230;-44
2022/09/06 00:49:42;;;;;;;6.03;5.43;;;;;;;14.04;91.16;98096.56;6135891;29;20238;-43
2022/09/06 00:52:47;;;;;;;7.57;5.77;;;;;;;14.01;91.66;98085.38;6098788;29;20778;-44
2022/09/06 00:55:49;;;;;;;6.10;5.60;;;;;;;13.97;92.22;98089.28;6135108;29;20242;-43
2022/09/06 00:58:52;;;;;;;5.73;5.30;;;;;;;13.94;92.49;98079.78;6133500;29;20305;-44
2022/09/06 01:01:54;;;;;;;6.23;5.73;;;;;;;13.91;92.26;98089.81;6134472;29;20230;-43
2022/09/06 01:04:57;;;;;;;6.23;5.57;;;;;;;13.89;92.51;98091.75;6128301;28;20246;-45
2022/09/06 01:08:13;;;;;;;6.23;5.63;;;;;;;13.84;92.82;98091.31;6134378;28;20226;-43
2022/09/06 01:11:37;;;;;;;5.70;5.20;;;;;;;13.82;93.06;98080.84;6134671;29;20254;-43
2022/09/06 01:15:24;;;;;;;6.53;5.97;;;;;;;13.79;93.44;98090.84;6133782;29;20250;-43
2022/09/06 01:18:44;;;;;;;6.47;5.87;;;;;;;13.77;93.44;98085.72;6060733;29;20249;-43
2022/09/06 01:22:01;;;;;;;6.40;5.90;;;;;;;13.77;93.82;98088.38;6059926;29;20241;-44
2022/09/06 01:25:17;;;;;;;6.00;5.50;;;;;;;13.81;93.39;98084.47;6060880;29;20237;-44
2022/09/06 01:28:45;;;;;;;6.37;5.87;;;;;;;13.82;93.56;98091.44;6060772;29;20240;-44
2022/09/06 01:32:10;;;;;;;5.80;5.10;;;;;;;13.85;93.10;98079.72;6060551;29;20255;-44
2022/09/06 01:35:27;;;;;;;6.17;5.67;;;;;;;13.81;92.96;98086.25;6059731;29;20244;-44
2022/09/06 01:38:29;;;;;;;5.67;5.20;;;;;;;13.80;93.13;98081.94;6065223;29;20243;-43
2022/09/06 01:41:32;;;;;;;5.70;5.20;;;;;;;13.81;92.92;98088.91;6060653;29;20315;-43
2022/09/06 01:44:36;;;;;;;6.07;5.60;;;;;;;13.79;92.62;98090.84;6060006;29;20652;-43
2022/09/06 01:47:44;;;;;;;6.27;5.17;;;;;;;13.77;92.71;98088.38;6060205;29;20795;-43
2022/09/06 01:51:21;;;;;;;5.30;4.80;;;;;;;13.73;92.28;98083.44;6065198;29;20221;-43
2022/09/06 01:54:33;;;;;;;6.00;5.23;;;;;;;13.66;92.49;98073.38;6109898;29;20299;-45
2022/09/06 01:58:07;;;;;;;6.13;5.53;;;;;;;13.59;92.53;98074.84;6133554;29;20242;-43
2022/09/06 02:01:46;;;;;;;6.30;5.70;;;;;;;13.58;92.79;98080.28;6101361;29;20907;-43
2022/09/06 02:05:32;;;;;;;6.60;6.00;;;;;;;13.54;93.04;98070.94;6132007;28;20231;-43
2022/09/06 02:08:43;;;;;;;7.43;5.50;;;;;;;13.48;93.13;98074.09;6052186;29;20310;-43
2022/09/06 02:11:50;;;;;;;6.40;5.80;;;;;;;13.49;93.27;98073.13;6084912;29;20826;-43
2022/09/06 02:14:59;;;;;;;6.80;6.20;;;;;;;13.51;93.21;98068.53;6082359;29;20261;-44
2022/09/06 02:18:26;;;;;;;6.33;5.83;;;;;;;13.45;92.83;98055.81;6083119;29;20812;-43
2022/09/06 02:21:33;;;;;;;6.10;5.47;;;;;;;13.39;92.86;98054.53;6082544;29;20259;-44
2022/09/06 02:24:39;;;;;;;6.30;5.80;;;;;;;13.36;93.02;98053.97;6083903;29;20232;-43
2022/09/06 02:27:41;;;;;;;6.73;5.10;;;;;;;13.34;93.39;98058.53;6082247;29;20255;-43
2022/09/06 02:30:58;;;;;;;5.87;5.37;;;;;;;13.33;93.44;98055.06;6082824;29;20231;-43
2022/09/06 02:34:01;;;;;;;6.20;5.60;;;;;;;13.33;93.20;98056.88;6081718;29;20820;-43
2022/09/06 02:37:05;;;;;;;5.30;4.90;;;;;;;13.34;92.90;98055.91;6082695;29;20241;-44
2022/09/06 02:40:10;;;;;;;5.90;5.30;;;;;;;13.30;93.01;98061.44;6082702;29;20775;-43
2022/09/06 02:43:12;;;;;;;5.47;4.90;;;;;;;13.25;93.56;98053.06;6082084;29;20227;-44
2022/09/06 02:46:14;;;;;;;6.70;6.10;;;;;;;13.23;93.19;98060.31;6126777;28;20241;-43
2022/09/06 02:49:16;;;;;;;6.10;5.60;;;;;;;13.23;93.25;98057.66;6133340;28;20934;-43
2022/09/06 02:52:18;;;;;;;5.80;5.30;;;;;;;13.20;93.61;98055.25;6134006;28;20237;-43
2022/09/06 02:55:20;;;;;;;5.47;4.97;;;;;;;13.19;93.75;98055.38;6132437;28;20644;-43
2022/09/06 02:58:23;;;;;;;6.00;5.50;;;;;;;13.18;93.76;98057.19;6131516;28;20237;-43
2022/09/06 03:01:26;;;;;;;5.87;5.37;;;;;;;13.15;93.53;98060.13;6132991;28;20703;-43
2022/09/06 03:04:28;;;;;;;5.33;4.83;;;;;;;13.17;93.96;98062.63;6132152;28;20268;-43
2022/09/06 03:07:30;;;;;;;6.03;5.53;;;;;;;13.17;93.57;98065.28;6132470;28;20736;-43
2022/09/06 03:10:32;;;;;;;5.53;5.03;;;;;;;13.17;93.55;98060.84;6131696;28;20269;-43
2022/09/06 03:13:34;;;;;;;5.70;5.20;;;;;;;13.12;93.36;98051.53;6132941;29;20733;-43
2022/09/06 03:16:37;;;;;;;5.70;5.17;;;;;;;13.08;93.21;98052.75;6132276;29;20274;-43
2022/09/06 03:19:39;;;;;;;6.90;6.00;;;;;;;13.01;93.62;98051.59;6130818;29;20239;-43
2022/09/06 03:22:41;;;;;;;5.87;5.40;;;;;;;13.01;93.85;98051.59;6132508;29;20788;-43
2022/09/06 03:25:43;;;;;;;6.27;5.67;;;;;;;12.96;93.40;98044.06;6130812;29;20305;-44
2022/09/06 03:28:45;;;;;;;6.50;5.90;;;;;;;12.93;93.68;98044.31;6133027;29;20223;-43
2022/09/06 03:31:47;;;;;;;5.53;5.03;;;;;;;12.93;94.17;98039.84;6133246;29;20647;-44
2022/09/06 03:34:50;;;;;;;7.33;6.00;;;;;;;12.96;93.64;98046.72;6131314;29;20241;-44
2022/09/06 03:37:52;;;;;;;6.10;5.57;;;;;;;12.97;93.96;98035.16;6132230;29;20238;-43
2022/09/06 03:40:55;;;;;;;5.53;5.03;;;;;;;12.90;93.47;98041.91;6131064;29;20265;-43
2022/09/06 03:43:57;;;;;;;6.20;5.70;;;;;;;12.86;93.62;98033.41;6132203;29;20242;-44
2022/09/06 03:46:59;;;;;;;6.00;5.40;;;;;;;12.87;93.62;98034.25;6132732;29;20289;-44
2022/09/06 03:50:01;;;;;;;6.37;5.87;;;;;;;12.88;93.63;98036.72;6131589;29;20249;-43
2022/09/06 03:53:03;;;;;;;5.20;4.80;;;;;;;12.90;93.36;98041.91;6132707;28;20242;-42
2022/09/06 03:56:05;;;;;;;6.23;5.63;;;;;;;12.88;93.61;98038.53;6131037;29;20602;-44
2022/09/06 03:59:07;;;;;;;6.90;5.63;;;;;;;12.85;93.37;98047.59;6132254;29;20707;-44
2022/09/06 04:02:09;;;;;;;7.03;5.83;;;;;;;12.82;93.20;98049.66;6131924;29;20295;-43
2022/09/06 04:05:12;;;;;;;5.97;5.47;;;;;;;12.81;93.13;98048.81;6131919;28;20238;-43
2022/09/06 04:08:14;;;;;;;6.50;6.00;;;;;;;12.79;93.39;98050.75;6132230;28;20291;-43
2022/09/06 04:11:16;;;;;;;6.40;5.80;;;;;;;12.78;93.24;98050.88;6135121;29;20995;-43
2022/09/06 04:14:18;;;;;;;5.90;5.30;;;;;;;12.77;93.49;98042.13;6136501;29;20242;-43
2022/09/06 04:17:20;;;;;;;7.20;6.53;;;;;;;12.78;92.96;98046.41;6135582;29;20285;-44
2022/09/06 04:20:22;;;;;;;6.80;6.07;;;;;;;12.73;93.26;98042.47;6135491;29;20671;-43
2022/09/06 04:23:26;;;;;;;6.97;5.83;;;;;;;12.73;93.37;98045.97;6119043;29;20245;-43
2022/09/06 04:26:29;;;;;;;6.90;6.20;;;;;;;12.67;93.35;98043.84;6135976;29;20227;-43
2022/09/06 04:29:31;;;;;;;7.17;6.57;;;;;;;12.65;93.45;98029.88;6135449;29;20237;-43
2022/09/06 04:32:33;;;;;;;8.40;6.80;;;;;;;12.67;93.08;98038.56;6135155;29;20227;-43
2022/09/06 04:35:36;;;;;;;7.33;5.97;;;;;;;12.65;92.79;98037.00;6135607;29;20322;-43
2022/09/06 04:38:40;;;;;;;8.00;6.33;;;;;;;12.65;93.08;98040.47;6118813;29;20742;-43
2022/09/06 04:41:43;;;;;;;7.40;6.70;;;;;;;12.65;92.84;98040.47;6134973;29;20235;-44
2022/09/06 04:44:45;;;;;;;7.57;6.97;;;;;;;12.63;92.84;98036.28;6133448;29;20234;-43
2022/09/06 04:47:47;;;;;;;6.63;6.03;;;;;;;12.67;92.86;98043.00;6116671;29;20246;-43
2022/09/06 04:50:49;;;;;;;8.30;7.30;;;;;;;12.68;93.07;98042.84;6134887;29;20266;-44
2022/09/06 04:53:51;;;;;;;7.83;7.03;;;;;;;12.71;92.64;98049.72;6133974;29;20242;-43
2022/09/06 04:56:53;;;;;;;6.87;6.27;;;;;;;12.71;92.57;98053.19;6135121;29;20238;-43
2022/09/06 04:59:56;;;;;;;8.10;6.63;;;;;;;12.75;92.60;98054.63;6110749;29;20385;-43
2022/09/06 05:02:59;;;;;;;7.20;6.53;;;;;;;12.75;92.96;98053.78;6131135;29;20641;-44
2022/09/06 05:06:08;;;;;;;7.57;6.97;;;;;;;12.75;92.65;98057.28;6134003;29;20791;-42
2022/09/06 05:09:10;;;;;;;9.07;8.17;;;;;;;12.78;92.86;98057.00;6115644;29;20238;-43
2022/09/06 05:12:13;;;;;;;7.67;6.97;;;;;;;12.82;93.01;98061.09;6136622;29;20230;-43
2022/09/06 05:15:16;;;;;;;7.73;7.07;;;;;;;12.87;92.75;98056.28;6135088;29;20713;-44
2022/09/06 05:18:18;;;;;;;7.80;7.10;;;;;;;12.92;92.92;98056.72;6133582;29;20710;-44
2022/09/06 05:21:20;;;;;;;7.40;6.80;;;;;;;12.93;92.81;98057.56;6133823;28;20312;-45
2022/09/06 05:24:22;;;;;;;8.00;7.30;;;;;;;12.94;92.33;98057.44;6133278;29;20806;-43
2022/09/06 05:27:24;;;;;;;8.00;7.27;;;;;;;12.98;92.86;98062.47;6133699;29;20362;-43
2022/09/06 05:30:26;;;;;;;7.97;7.27;;;;;;;13.04;92.40;98068.09;6133017;29;20598;-44
2022/09/06 05:33:28;;;;;;;8.27;7.33;;;;;;;13.11;92.77;98073.72;6133002;29;20365;-43
2022/09/06 05:36:31;;;;;;;7.30;6.70;;;;;;;13.15;92.17;98076.03;6133010;29;20230;-43
2022/09/06 05:39:33;;;;;;;7.10;6.50;;;;;;;13.18;92.74;98073.09;6133156;29;20238;-43
2022/09/06 05:42:35;;;;;;;8.13;7.33;;;;;;;13.21;92.59;98072.84;6135365;29;20361;-43
2022/09/06 05:45:37;;;;;;;7.53;6.90;;;;;;;13.25;92.08;98073.44;6133286;29;20234;-43
2022/09/06 05:48:39;;;;;;;7.97;7.27;;;;;;;13.30;92.17;98079.16;6133150;29;20262;-43
2022/09/06 05:51:41;;;;;;;7.93;6.90;;;;;;;13.36;91.99;98073.34;6117443;28;20646;-45
2022/09/06 05:54:43;;;;;;;7.63;6.93;;;;;;;13.42;91.92;98071.97;6131169;28;20230;-44
2022/09/06 05:57:45;;;;;;;8.17;7.43;;;;;;;13.47;92.03;98072.44;6132687;29;20697;-43
2022/09/06 06:00:47;;;;;;;7.60;6.90;;;;;;;13.53;91.81;98067.44;6115783;29;20732;-44
2022/09/06 06:03:57;;;;;;;10.17;6.90;;;;;;;13.61;91.61;98066.78;6132880;29;20222;-43
2022/09/06 06:07:00;;;;;;;8.23;7.57;;;;;;;13.68;91.52;98075.88;6133199;28;20641;-43
2022/09/06 06:10:03;;;;;;;7.87;7.17;;;;;;;13.74;91.65;98077.16;6132184;28;20748;-43
2022/09/06 06:13:05;;;;;;;7.67;6.97;;;;;;;13.73;91.49;98076.31;6133127;29;20297;-43
2022/09/06 06:16:12;;;;;;;7.80;7.10;;;;;;;13.76;91.46;98070.75;6131832;29;20318;-43
2022/09/06 06:19:15;;;;;;;7.73;7.10;;;;;;;13.83;91.51;98073.72;6133055;28;20728;-44
2022/09/06 06:22:17;;;;;;;7.77;7.07;;;;;;;13.94;91.34;98073.63;6132222;29;20242;-43
2022/09/06 06:25:24;;;;;;;7.57;6.87;;;;;;;14.03;91.31;98075.47;6133445;29;20812;-43
2022/09/06 06:28:27;;;;;;;7.60;7.00;;;;;;;14.10;91.09;98071.28;6132108;29;20722;-44
2022/09/06 06:31:31;;;;;;;7.23;6.63;;;;;;;14.17;90.89;98077.75;6131529;28;20320;-43
2022/09/06 06:34:33;;;;;;;7.73;7.03;;;;;;;14.26;91.03;98068.13;6132207;29;20230;-44
2022/09/06 06:37:35;;;;;;;8.30;7.43;;;;;;;14.34;90.88;98069.13;6130889;29;20718;-45
2022/09/06 06:40:37;;;;;;;7.20;6.60;;;;;;;14.44;90.68;98066.50;6132295;29;21815;-44
2022/09/06 06:43:39;;;;;;;8.40;7.70;;;;;;;14.55;90.61;98061.06;6131826;29;20933;-43
2022/09/06 06:46:41;;;;;;;7.57;6.83;;;;;;;14.65;90.58;98061.06;6131535;29;20317;-43
2022/09/06 06:49:43;;;;;;;8.43;7.53;;;;;;;14.77;90.35;98073.25;6131362;29;20597;-43
2022/09/06 06:52:45;;;;;;;8.00;7.27;;;;;;;14.93;90.18;98081.50;6126341;29;20395;-44
2022/09/06 06:55:47;;;;;;;7.23;6.63;;;;;;;15.04;89.92;98084.00;6132913;29;20714;-43
2022/09/06 06:58:52;;;;;;;7.47;6.87;;;;;;;15.16;89.58;98079.38;6131557;29;20234;-45
2022/09/06 07:01:54;;;;;;;7.53;6.70;;;;;;;15.32;89.53;98076.97;6131467;29;20242;-45
2022/09/06 07:04:57;;;;;;;7.30;6.60;;;;;;;15.50;88.70;98083.22;6114236;29;20773;-43
2022/09/06 07:07:59;;;;;;;7.47;6.77;;;;;;;15.70;88.14;98072.53;6132129;29;20238;-44
2022/09/06 07:11:01;;;;;;;8.13;7.43;;;;;;;15.92;87.30;98080.16;6130978;29;20241;-43
2022/09/06 07:14:03;;;;;;;7.70;6.93;;;;;;;16.14;86.41;98073.63;6131055;29;20241;-44
2022/09/06 07:17:05;;;;;;;7.70;7.00;;;;;;;16.34;85.45;98069.88;6130031;29;20242;-45
2022/09/06 07:20:10;;;;;;;7.47;6.73;;;;;;;16.56;84.56;98072.13;6132036;29;20235;-45
2022/09/06 07:23:17;;;;;;;6.30;5.70;;;;;;;16.93;83.50;98071.16;6130544;29;20253;-44
2022/09/06 07:26:39;;;;;;;6.60;6.00;;;;;;;17.36;81.80;98075.66;6131458;29;20810;-43
2022/09/06 07:29:41;;;;;;;5.80;5.30;;;;;;;17.69;80.19;98082.91;6130976;28;20448;-44
2022/09/06 07:32:43;;;;;;;6.67;6.00;;;;;;;18.00;79.04;98085.06;6136896;29;20222;-43
2022/09/06 07:36:00;;;;;;;6.47;5.87;;;;;;;18.37;77.55;98077.53;6137104;29;20332;-43
2022/09/06 07:39:02;;;;;;;5.60;5.20;;;;;;;18.72;76.24;98086.34;6130528;29;20733;-43
2022/09/06 07:42:05;;;;;;;5.20;4.80;;;;;;;19.08;74.61;98092.22;6131235;29;20218;-43
2022/09/06 07:45:08;;;;;;;5.43;5.00;;;;;;;19.44;73.22;98087.38;6133991;28;20218;-43
2022/09/06 07:48:10;;;;;;;6.73;6.13;;;;;;;19.71;71.66;98087.03;6135673;29;20222;-43
2022/09/06 07:51:17;;;;;;;6.17;5.67;;;;;;;19.82;70.60;98086.69;6136067;28;20270;-44
2022/09/06 07:54:21;;;;;;;5.50;5.10;;;;;;;20.08;70.22;98090.94;6134725;28;20569;-46
2022/09/06 07:57:32;;;;;;;5.50;5.00;;;;;;;20.48;68.67;98081.91;6135098;29;20811;-44
2022/09/06 08:00:34;;;;;;;5.00;4.33;;;;;;;20.87;67.35;98088.06;6135226;29;20712;-42
2022/09/06 08:03:36;;;;;;;6.03;4.67;;;;;;;21.24;66.30;98079.28;6134535;29;20226;-44
2022/09/06 08:06:45;;;;;;;7.63;6.17;;;;;;;21.55;65.00;98076.47;6136002;28;20722;-42
2022/09/06 08:10:07;;;;;;;8.23;7.30;;;;;;;21.47;64.27;98070.31;6134735;28;20430;-43
2022/09/06 08:13:09;;;;;;;6.20;5.13;;;;;;;21.86;63.73;98070.13;6135949;29;20316;-43
2022/09/06 08:16:12;;;;;;;6.23;5.53;;;;;;;22.11;61.91;98079.59;6134493;29;20771;-43
2022/09/06 08:19:15;;;;;;;7.37;6.57;;;;;;;22.39;60.95;98077.88;6135838;28;20245;-44
2022/09/06 08:22:17;;;;;;;6.97;5.57;;;;;;;22.77;100.00;92243.59;6134846;29;20729;-44
2022/09/06 08:25:19;;;;;;;6.90;4.80;;;;;;;-144.22;100.00;60274.75;6134499;29;20230;-43
2022/09/06 08:28:21;;;;;;;5.23;4.83;;;;;;;-144.22;100.00;60274.75;6134402;29;20245;-43
2022/09/06 08:31:30;;;;;;;7.40;6.80;;;;;;;-144.22;100.00;60274.75;6134558;28;20234;-43
2022/09/06 08:34:33;;;;;;;7.73;7.03;;;;;;;23.09;57.85;98063.78;6133968;28;20376;-45
2022/09/06 08:37:35;;;;;;;6.97;6.37;;;;;;;-144.22;100.00;60274.75;6134337;29;20238;-44
2022/09/06 08:40:37;;;;;;;6.27;5.77;;;;;;;-144.22;100.00;60274.75;6115884;29;20252;-43
2022/09/06 08:44:11;;;;;;;7.93;7.10;;;;;;;42.51;100.00;60274.75;6133142;29;20607;-44
2022/09/06 08:47:34;;;;;;;6.73;6.13;;;;;;;-144.22;100.00;60274.75;6105344;29;20382;-43
2022/09/06 08:50:39;;;;;;;6.47;5.03;;;;;;;-144.22;100.00;60274.75;6132891;28;20609;-43
2022/09/06 08:53:50;;;;;;;7.53;6.83;;;;;;;-144.22;100.00;60274.75;6134373;28;20257;-43
2022/09/06 08:56:55;;;;;;;8.33;7.53;;;;;;;-144.22;100.00;60274.75;6132920;29;20778;-43
2022/09/06 09:00:02;;;;;;;6.80;6.13;;;;;;;-144.22;100.00;60274.75;6132525;29;20274;-43
2022/09/06 09:03:17;;;;;;;5.18;4.78;;;;;;;25.22;100.00;60274.75;6116847;29;20309;-43
2022/09/06 09:06:21;;;;;;;5.35;4.68;;;;;;;-144.22;100.00;60274.75;6134394;28;20691;-43
2022/09/06 09:09:30;;;;;;;5.03;4.57;;;;;;;32.13;100.00;60274.75;6132368;29;20273;-43
2022/09/06 09:12:35;;;;;;;6.28;5.57;;;;;;;-144.22;100.00;60274.75;6132581;29;20777;-44
2022/09/06 09:15:37;;;;;;;6.00;5.50;;;;;;;-144.22;100.00;60274.75;6134523;29;20234;-43
2022/09/06 09:18:45;;;;;;;7.13;6.53;;;;;;;-144.22;100.00;60274.75;6133960;29;21143;-45
2022/09/06 09:21:47;;;;;;;6.70;6.00;;;;;;;-144.22;100.00;60274.75;6130302;29;20698;-45
2022/09/06 09:24:51;;;;;;;6.60;5.13;;;;;;;26.13;100.00;83525.91;6133147;28;20241;-45
2022/09/06 09:27:56;;;;;;;6.50;5.72;;;;;;;-144.22;100.00;60274.75;6132657;28;20250;-43
2022/09/06 09:30:58;;;;;;;6.85;6.15;;;;;;;26.28;100.00;60274.75;6133734;29;20289;-43
2022/09/06 09:34:03;;;;;;;7.00;6.38;;;;;;;-144.22;100.00;60274.75;6134149;29;20260;-43
2022/09/06 09:37:22;;;;;;;6.72;6.03;;;;;;;-144.22;100.00;60274.75;6134483;29;20239;-43
2022/09/06 09:40:54;;;;;;;7.20;6.50;;;;;;;-144.22;100.00;60274.75;6120081;29;20242;-45
2022/09/06 09:44:01;;;;;;;6.53;5.93;;;;;;;-144.22;100.00;60274.75;6132407;29;20258;-46
2022/09/06 09:47:30;;;;;;;6.95;6.43;;;;;;;-144.22;100.00;60274.75;6132451;29;20305;-44
2022/09/06 09:50:34;;;;;;;6.82;6.05;;;;;;;-144.22;100.00;60274.75;6131946;29;20283;-43
2022/09/06 09:53:55;;;;;;;5.93;5.30;;;;;;;28.23;100.00;60274.75;6133219;28;20705;-44
2022/09/06 09:56:58;;;;;;;7.30;6.68;;;;;;;-144.22;100.00;60274.75;6133720;29;20230;-43
2022/09/06 10:00:00;;;;;;;8.25;7.45;;;;;;;28.23;100.00;60274.75;6132602;29;20238;-44
2022/09/06 10:03:30;;;;;;;8.07;7.20;;;;;;;28.23;100.00;60274.75;6131766;29;20289;-44
2022/09/06 10:06:34;;;;;;;8.38;7.68;;;;;;;-144.22;100.00;60274.75;6128293;28;20709;-44
2022/09/06 10:10:03;;;;;;;7.22;6.50;;;;;;;28.23;100.00;60274.75;6132406;28;20239;-43
2022/09/06 10:13:28;;;;;;;7.45;6.70;;;;;;;-144.22;100.00;60274.75;6116523;29;20698;-45
2022/09/06 10:16:44;;;;;;;7.88;7.18;;;;;;;29.53;100.00;60274.75;6116339;29;20235;-43
2022/09/06 10:19:47;;;;;;;8.43;7.65;;;;;;;28.23;100.00;60274.75;6132148;29;20251;-44
2022/09/06 10:23:01;;;;;;;6.25;5.65;;;;;;;-144.22;100.00;60274.75;6132675;29;20242;-45
2022/09/06 10:26:37;;;;;;;8.25;7.55;;;;;;;-144.22;100.00;60274.75;6132014;29;20302;-44
2022/09/06 10:29:51;;;;;;;7.50;6.80;;;;;;;29.53;100.00;60274.75;6132262;29;20297;-43
2022/09/06 10:33:01;;;;;;;5.60;5.10;;;;;;;-144.22;100.00;60274.75;6131727;29;20238;-44
2022/09/06 10:36:04;;;;;;;7.32;6.72;;;;;;;-144.22;100.00;60274.75;6131515;29;20239;-45
2022/09/06 10:39:22;;;;;;;6.63;6.03;;;;;;;-144.22;100.00;60274.75;6115609;29;20217;-44
2022/09/06 10:42:43;;;;;;;10.10;8.23;;;;;;;-144.22;100.00;60274.75;6129613;29;20695;-44
2022/09/06 10:46:01;;;;;;;8.88;7.40;;;;;;;42.51;100.00;60274.75;6131792;29;20880;-44
2022/09/06 10:49:05;;;;;;;6.43;5.93;;;;;;;-144.22;100.00;60274.75;6132564;29;20226;-45
2022/09/06 10:52:14;;;;;;;5.95;5.32;;;;;;;29.37;100.00;60274.75;6114470;28;20239;-44
2022/09/06 10:55:18;;;;;;;6.07;5.53;;;;;;;30.02;100.00;60274.75;6132090;29;20238;-44
2022/09/06 10:58:28;;;;;;;8.13;6.68;;;;;;;29.39;100.00;60274.75;6131910;29;20262;-44
2022/09/06 11:02:23;;;;;;;8.25;7.55;;;;;;;-144.22;100.00;60274.75;6132201;29;20576;-44
2022/09/06 11:05:32;;;;;;;6.78;6.10;;;;;;;-144.22;100.00;60274.75;6026979;29;20240;-47
2022/09/06 11:08:50;;;;;;;9.32;7.00;;;;;;;42.51;100.00;60274.75;6036146;29;20648;-44
2022/09/06 11:12:08;;;;;;;5.85;5.25;;;;;;;-144.22;100.00;60274.75;6057153;29;20795;-45
2022/09/06 11:15:13;;;;;;;6.55;5.53;;;;;;;-144.22;100.00;60274.75;6057198;29;20237;-44
2022/09/06 11:18:23;;;;;;;6.40;5.80;;;;;;;29.94;100.00;60274.75;6059423;29;20224;-46
2022/09/06 11:22:09;;;;;;;5.40;4.90;;;;;;;-144.22;100.00;60274.75;6061624;29;20715;-43
2022/09/06 11:25:14;;;;;;;7.57;5.70;;;;;;;30.01;100.00;60274.75;6062398;29;20712;-44
2022/09/06 11:28:27;;;;;;;6.28;5.70;;;;;;;-144.22;100.00;60274.75;6062756;29;20236;-43
2022/09/06 11:31:32;;;;;;;6.35;5.50;;;;;;;-144.22;100.00;60274.75;6063912;29;20360;-45
2022/09/06 11:35:00;;;;;;;8.65;6.30;;;;;;;30.08;100.00;60274.75;6062429;29;20272;-44
2022/09/06 11:38:08;;;;;;;6.22;5.65;;;;;;;-144.22;100.00;60274.75;6062379;29;20240;-44
2022/09/06 11:41:16;;;;;;;6.38;5.95;;;;;;;-144.22;100.00;60274.75;6058087;29;20286;-45
2022/09/06 11:44:49;;;;;;;6.68;5.95;;;;;;;-144.22;100.00;60274.75;6111648;29;20235;-44
2022/09/06 11:47:52;;;;;;;6.32;5.82;;;;;;;28.72;100.00;60274.75;6111686;29;20634;-47
2022/09/06 11:50:57;;;;;;;5.90;5.40;;;;;;;-144.22;100.00;60274.75;6111915;29;20235;-44
2022/09/06 11:54:05;;;;;;;7.20;5.43;;;;;;;29.32;100.00;60274.75;6095233;29;20238;-45
2022/09/06 11:57:07;;;;;;;5.60;5.10;;;;;;;-144.22;100.00;60274.75;6111655;29;20238;-44
2022/09/06 12:00:22;;;;;;;7.57;5.63;;;;;;;-144.22;100.00;60274.75;6111340;29;20234;-44
2022/09/06 12:03:46;;;;;;;5.93;5.32;;;;;;;-144.22;100.00;60274.75;6111547;29;20239;-44
2022/09/06 12:07:12;;;;;;;5.57;5.18;;;;;;;-144.22;100.00;60274.75;6112424;29;20232;-44
2022/09/06 12:10:29;;;;;;;5.30;4.80;;;;;;;29.19;100.00;60274.75;6120356;28;20309;-46
2022/09/06 12:13:52;;;;;;;5.25;4.68;;;;;;;29.37;100.00;60274.75;6135575;28;20772;-46
2022/09/06 12:16:58;;;;;;;5.57;5.13;;;;;;;-144.22;100.00;60274.75;6134989;28;20662;-46
2022/09/06 12:20:07;;;;;;;5.35;4.95;;;;;;;28.92;100.00;60274.75;6136058;28;20238;-46
2022/09/06 12:23:34;;;;;;;6.60;5.72;;;;;;;28.11;41.08;97907.06;6136130;28;20325;-44
2022/09/06 12:27:06;;;;;;;5.80;5.30;;;;;;;28.00;41.74;97919.50;6135161;28;20230;-46
2022/09/06 12:30:11;;;;;;;6.07;5.47;;;;;;;27.72;42.99;97911.09;6133633;28;20231;-47
2022/09/06 12:33:23;;;;;;;5.97;5.35;;;;;;;27.39;43.06;97914.13;6135811;28;20651;-44
2022/09/06 12:36:30;;;;;;;4.63;4.32;;;;;;;29.53;100.00;60274.75;6133360;28;20234;-43
2022/09/06 12:39:34;;;;;;;4.93;4.53;;;;;;;-144.22;100.00;60274.75;6135198;28;20230;-43
2022/09/06 12:42:37;;;;;;;5.53;4.90;;;;;;;-144.22;100.00;60274.75;6133602;28;20242;-44
2022/09/06 12:45:46;;;;;;;7.28;4.95;;;;;;;-144.22;100.00;60274.75;6135160;28;20835;-44
2022/09/06 12:49:06;;;;;;;6.68;5.30;;;;;;;-144.22;100.00;60274.75;6135386;28;20581;-44
2022/09/06 12:52:18;;;;;;;9.27;6.53;;;;;;;-144.22;100.00;60274.75;6133223;28;20291;-44
2022/09/06 12:55:31;;;;;;;6.30;5.40;;;;;;;-144.22;100.00;60274.75;6133999;28;20245;-45
2022/09/06 12:58:36;;;;;;;6.15;5.63;;;;;;;-144.22;100.00;60274.75;6135309;28;20242;-44
2022/09/06 13:02:07;;;;;;;7.53;6.32;;;;;;;-144.22;100.00;60274.75;6132459;28;20238;-44
2022/09/06 13:05:12;;;;;;;4.93;4.30;;;;;;;29.02;100.00;60274.75;6133980;28;20227;-45
2022/09/06 13:08:23;;;;;;;4.60;4.20;;;;;;;-144.22;100.00;60274.75;6134164;28;20773;-46
2022/09/06 13:11:33;;;;;;;5.75;4.70;;;;;;;29.51;100.00;60274.75;6134254;28;20308;-44
2022/09/06 13:14:35;;;;;;;7.72;6.00;;;;;;;-144.22;100.00;60274.75;6133574;29;20321;-44
2022/09/06 13:17:39;;;;;;;6.15;5.40;;;;;;;30.18;100.00;60274.75;6134026;29;20237;-45
2022/09/06 13:20:41;;;;;;;6.53;5.93;;;;;;;-144.22;100.00;60274.75;6134439;29;20238;-48
2022/09/06 13:23:46;;;;;;;5.88;5.20;;;;;;;-144.22;100.00;60274.75;6132743;29;20717;-47
2022/09/06 13:26:49;;;;;;;5.93;5.32;;;;;;;30.44;36.04;97869.84;6132758;29;20673;-45
2022/09/06 13:30:06;;;;;;;6.07;5.47;;;;;;;-144.22;100.00;60274.75;6132866;29;20238;-45
2022/09/06 13:33:23;;;;;;;6.90;5.13;;;;;;;-144.22;100.00;60274.75;6132117;29;20219;-44
2022/09/06 13:36:29;;;;;;;6.78;5.32;;;;;;;-144.22;100.00;60274.75;6132358;29;20360;-44
2022/09/06 13:39:36;;;;;;;5.60;5.00;;;;;;;-144.22;100.00;60274.75;6132191;29;20238;-44
2022/09/06 13:42:39;;;;;;;5.18;4.75;;;;;;;-144.22;100.00;60274.75;6133970;28;20234;-44
2022/09/06 13:45:41;;;;;;;7.97;5.70;;;;;;;34.72;100.00;60274.75;6132794;29;20265;-45
2022/09/06 13:48:43;;;;;;;6.10;5.60;;;;;;;-144.22;100.00;60274.75;6132077;29;20241;-46
2022/09/06 13:51:45;;;;;;;6.03;5.05;;;;;;;-144.22;100.00;60274.75;6133773;28;20246;-46
2022/09/06 13:54:48;;;;;;;5.53;5.13;;;;;;;-144.22;100.00;60274.75;6132928;29;20238;-47
2022/09/06 13:57:50;;;;;;;7.25;5.00;;;;;;;-144.22;100.00;60274.75;6132557;29;20230;-45
2022/09/06 14:00:52;;;;;;;14.23;5.65;;;;;;;-144.22;100.00;60274.75;6132634;29;20234;-46
2022/09/06 14:03:55;;;;;;;7.40;5.30;;;;;;;-144.22;100.00;60274.75;6131638;29;20227;-44
2022/09/06 14:06:57;;;;;;;5.97;5.30;;;;;;;-144.22;100.00;60274.75;6132995;28;20241;-46
2022/09/06 14:10:00;;;;;;;5.03;4.03;;;;;;;-144.22;100.00;60274.75;6131884;29;20246;-45
2022/09/06 14:13:02;;;;;;;4.00;3.70;;;;;;;-144.22;100.00;60274.75;6132171;29;20239;-48
2022/09/06 14:16:04;;;;;;;4.75;4.35;;;;;;;-144.22;100.00;60274.75;6132156;29;20237;-44
2022/09/06 14:19:07;;;;;;;3.63;3.33;;;;;;;-144.22;100.00;60274.75;6131832;29;20230;-47
2022/09/06 14:22:09;;;;;;;6.63;4.18;;;;;;;-144.22;100.00;60274.75;6109139;29;20386;-47
2022/09/06 14:25:11;;;;;;;4.80;4.30;;;;;;;-144.22;100.00;60274.75;6129211;29;20605;-45
2022/09/06 14:28:14;;;;;;;4.93;3.90;;;;;;;-144.22;100.00;60274.75;6131598;29;20312;-45
2022/09/06 14:31:19;;;;;;;4.63;4.15;;;;;;;-144.22;100.00;60274.75;6130809;29;20608;-46